createdAt,value
2022-12-05T00:00:05.380Z,16.00
2022-12-05T00:02:33.449Z,22.08
2022-12-05T00:05:01.745Z,18.48
2022-12-05T00:07:32.495Z,18.13
2022-12-05T00:10:01.696Z,20.63
2022-12-05T00:12:31.519Z,19.90
2022-12-05T00:15:01.550Z,21.70
2022-12-05T00:17:30.323Z,19.60
2022-12-05T00:19:58.738Z,19.77
2022-12-05T00:22:27.608Z,19.73
2022-12-05T00:24:55.883Z,20.58
2022-12-05T00:27:24.339Z,21.38
2022-12-05T00:29:52.301Z,19.17
2022-12-05T00:32:21.778Z,19.70
2022-12-05T00:34:50.479Z,19.63
2022-12-05T00:37:19.707Z,20.17
2022-12-05T00:39:49.493Z,19.92
2022-12-05T00:42:17.787Z,20.75
2022-12-05T00:44:49.375Z,19.45
2022-12-05T00:47:19.853Z,21.50
2022-12-05T00:49:51.696Z,18.60
2022-12-05T00:52:22.349Z,21.55
2022-12-05T00:54:50.727Z,21.23
2022-12-05T00:57:18.811Z,20.33
2022-12-05T00:59:47.083Z,20.38
2022-12-05T01:02:15.990Z,19.30
2022-12-05T01:04:44.379Z,18.63
2022-12-05T01:07:13.793Z,18.58
2022-12-05T01:09:41.897Z,23.88
2022-12-05T01:12:12.115Z,24.58
2022-12-05T01:14:41.523Z,21.42
2022-12-05T01:17:09.636Z,21.67
2022-12-05T01:19:38.177Z,22.67
2022-12-05T01:22:07.581Z,23.17
2022-12-05T01:24:37.427Z,23.52
2022-12-05T01:27:08.245Z,21.80
2022-12-05T01:29:36.522Z,25.77
2022-12-05T01:32:06.179Z,26.50
2022-12-05T01:34:34.542Z,25.13
2022-12-05T01:37:03.185Z,23.67
2022-12-05T01:39:33.494Z,23.00
2022-12-05T01:42:05.672Z,32.30
2022-12-05T01:45:03.001Z,23.10
2022-12-05T01:47:36.256Z,23.83
2022-12-05T01:52:36.152Z,30.27
2022-12-05T01:55:10.693Z,24.10
2022-12-05T01:57:41.543Z,23.05
2022-12-05T02:00:13.077Z,25.17
2022-12-05T02:02:45.579Z,16.30
2022-12-05T02:05:18.408Z,22.48
2022-12-05T02:07:48.609Z,23.40
2022-12-05T02:10:17.375Z,24.88
2022-12-05T02:12:47.478Z,26.80
2022-12-05T02:15:38.792Z,27.02
2022-12-05T02:18:22.109Z,27.55
2022-12-05T02:21:14.751Z,24.92
2022-12-05T02:24:15.004Z,27.75
2022-12-05T02:27:11.820Z,26.92
2022-12-05T02:30:03.409Z,30.77
2022-12-05T02:32:39.487Z,33.28
2022-12-05T02:35:17.287Z,31.10
2022-12-05T02:37:53.287Z,32.60
2022-12-05T02:40:26.925Z,32.33
2022-12-05T02:43:01.680Z,37.13
2022-12-05T02:45:37.572Z,31.13
2022-12-05T02:48:07.956Z,47.53
2022-12-05T02:50:39.864Z,38.63
2022-12-05T02:53:13.035Z,35.80
2022-12-05T02:55:42.982Z,32.80
2022-12-05T02:58:17.543Z,31.52
2022-12-05T03:00:51.610Z,34.95
2022-12-05T03:03:29.881Z,36.55
2022-12-05T03:06:02.918Z,36.42
2022-12-05T03:08:35.495Z,36.03
2022-12-05T03:11:04.702Z,37.65
2022-12-05T03:13:39.517Z,33.30
2022-12-05T03:16:20.574Z,35.25
2022-12-05T03:18:51.780Z,39.45
2022-12-05T03:21:27.320Z,37.10
2022-12-05T03:24:01.850Z,31.63
2022-12-05T03:26:43.510Z,38.58
2022-12-05T03:29:28.863Z,38.70
2022-12-05T03:32:07.689Z,41.33
2022-12-05T03:34:50.744Z,36.35
2022-12-05T03:37:27.293Z,34.60
2022-12-05T03:40:07.477Z,39.25
2022-12-05T03:42:40.962Z,40.55
2022-12-05T03:45:13.838Z,38.70
2022-12-05T03:47:50.395Z,36.95
2022-12-05T03:50:22.474Z,38.95
2022-12-05T03:53:19.300Z,36.67
2022-12-05T03:55:50.260Z,37.70
2022-12-05T03:58:23.940Z,36.30
2022-12-05T04:00:55.421Z,41.08
2022-12-05T04:03:40.062Z,36.63
2022-12-05T04:06:16.727Z,35.10
2022-12-05T04:08:54.536Z,36.47
2022-12-05T04:11:31.259Z,35.20
2022-12-05T04:14:03.673Z,34.25
2022-12-05T04:16:55.487Z,33.08
2022-12-05T04:19:50.419Z,34.08
2022-12-05T04:22:18.998Z,32.97
2022-12-05T04:25:08.043Z,31.00
2022-12-05T04:27:43.607Z,33.35
2022-12-05T04:30:16.416Z,32.60
2022-12-05T04:32:47.646Z,31.27
2022-12-05T04:35:24.656Z,30.92
2022-12-05T04:37:59.471Z,29.40
2022-12-05T04:40:32.459Z,28.90
2022-12-05T04:43:08.258Z,27.30
2022-12-05T04:45:38.701Z,24.45
2022-12-05T04:48:12.614Z,23.75
2022-12-05T04:50:49.504Z,26.70
2022-12-05T04:53:19.011Z,25.33
2022-12-05T04:55:51.379Z,24.88
2022-12-05T04:58:21.595Z,22.70
2022-12-05T05:00:55.168Z,25.17
2022-12-05T05:05:57.411Z,23.98
2022-12-05T05:08:28.967Z,24.80
2022-12-05T05:11:07.865Z,22.30
2022-12-05T05:13:36.229Z,26.88
2022-12-05T05:16:05.483Z,21.73
2022-12-05T05:18:33.880Z,23.95
2022-12-05T05:21:03.408Z,25.13
2022-12-05T05:23:31.603Z,26.02
2022-12-05T05:26:00.672Z,23.98
2022-12-05T05:28:29.053Z,22.58
2022-12-05T05:31:04.583Z,23.88
2022-12-05T05:33:33.279Z,25.52
2022-12-05T05:36:05.851Z,25.92
2022-12-05T05:41:16.432Z,25.10
2022-12-05T05:43:48.005Z,23.27
2022-12-05T05:46:32.184Z,23.70
2022-12-05T05:49:02.946Z,26.83
2022-12-05T05:51:33.917Z,23.88
2022-12-05T05:54:02.325Z,25.92
2022-12-05T05:56:31.190Z,22.83
2022-12-05T05:59:00.921Z,24.98
2022-12-05T06:01:30.302Z,25.15
2022-12-05T06:04:00.886Z,26.05
2022-12-05T06:06:29.203Z,23.92
2022-12-05T06:08:58.597Z,25.13
2022-12-05T06:11:28.916Z,22.10
2022-12-05T06:13:58.140Z,23.52
2022-12-05T06:16:26.605Z,25.15
2022-12-05T06:18:56.940Z,23.05
2022-12-05T06:21:25.908Z,24.25
2022-12-05T06:23:54.412Z,23.98
2022-12-05T06:26:24.537Z,22.10
2022-12-05T06:28:52.698Z,22.08
2022-12-05T06:31:23.726Z,21.05
2022-12-05T06:33:52.231Z,23.50
2022-12-05T06:36:22.231Z,24.73
2022-12-05T06:38:50.611Z,24.00
2022-12-05T06:41:25.820Z,21.10
2022-12-05T06:44:01.413Z,22.08
2022-12-05T06:46:31.307Z,20.77
2022-12-05T06:49:00.612Z,20.40
2022-12-05T06:51:28.758Z,22.23
2022-12-05T06:53:57.498Z,18.95
2022-12-05T06:56:26.986Z,18.13
2022-12-05T06:58:55.681Z,18.08
2022-12-05T07:01:40.961Z,18.88
2022-12-05T07:04:13.330Z,19.90
2022-12-05T07:06:46.117Z,20.25
2022-12-05T07:09:17.840Z,18.33
2022-12-05T07:11:49.324Z,20.38
2022-12-05T07:14:39.106Z,16.60
2022-12-05T07:17:07.439Z,18.40
2022-12-05T07:19:35.513Z,19.48
2022-12-05T07:22:03.803Z,17.73
2022-12-05T07:24:33.500Z,16.58
2022-12-05T07:27:02.881Z,21.30
2022-12-05T07:29:31.828Z,18.27
2022-12-05T07:32:01.943Z,16.27
2022-12-05T07:34:30.249Z,16.80
2022-12-05T07:36:58.536Z,15.38
2022-12-05T07:39:27.829Z,18.30
2022-12-05T07:41:55.905Z,15.27
2022-12-05T07:44:25.311Z,16.80
2022-12-05T07:46:53.399Z,17.10
2022-12-05T07:49:21.360Z,15.20
2022-12-05T07:51:50.187Z,15.05
2022-12-05T07:54:18.412Z,16.02
2022-12-05T07:56:48.085Z,15.60
2022-12-05T07:59:17.123Z,17.58
2022-12-05T08:01:47.877Z,17.60
2022-12-05T08:04:16.222Z,17.65
2022-12-05T08:06:44.802Z,18.17
2022-12-05T08:09:13.031Z,15.52
2022-12-05T08:11:42.430Z,16.92
2022-12-05T08:14:14.577Z,16.63
2022-12-05T08:16:42.715Z,17.42
2022-12-05T08:19:14.391Z,16.77
2022-12-05T08:21:42.462Z,17.27
2022-12-05T08:24:12.032Z,15.63
2022-12-05T08:26:41.069Z,15.80
2022-12-05T08:29:11.823Z,15.45
2022-12-05T08:31:42.638Z,16.33
2022-12-05T08:34:15.261Z,18.75
2022-12-05T08:36:50.023Z,20.50
2022-12-05T08:39:20.575Z,16.52
2022-12-05T08:41:50.162Z,14.73
2022-12-05T08:44:21.392Z,18.08
2022-12-05T08:46:52.801Z,18.52
2022-12-05T08:49:24.525Z,17.38
2022-12-05T08:51:52.684Z,17.10
2022-12-05T08:54:20.779Z,18.60
2022-12-05T08:56:52.736Z,20.13
2022-12-05T08:59:22.417Z,22.17
2022-12-05T09:01:51.714Z,15.40
2022-12-05T09:04:25.083Z,19.38
2022-12-05T09:06:54.429Z,15.88
2022-12-05T09:09:24.050Z,16.23
2022-12-05T09:11:52.449Z,16.15
2022-12-05T09:14:20.668Z,16.30
2022-12-05T09:16:49.577Z,16.88
2022-12-05T09:19:23.522Z,20.52
2022-12-05T09:21:55.688Z,20.23
2022-12-05T09:24:25.871Z,20.17
2022-12-05T09:26:56.407Z,16.83
2022-12-05T09:29:25.584Z,15.93
2022-12-05T09:31:55.727Z,17.20
2022-12-05T09:34:26.066Z,16.55
2022-12-05T09:37:10.609Z,15.77
2022-12-05T09:39:49.112Z,19.38
2022-12-05T09:42:41.776Z,15.02
2022-12-05T09:45:22.774Z,17.25
2022-12-05T09:48:04.912Z,18.77
2022-12-05T09:50:39.159Z,18.83
2022-12-05T09:53:17.791Z,18.55
2022-12-05T09:55:48.404Z,17.80
2022-12-05T09:58:42.712Z,17.92
2022-12-05T10:01:30.734Z,15.95
2022-12-05T10:04:22.987Z,15.75
2022-12-05T10:07:01.584Z,16.60
2022-12-05T10:09:49.005Z,15.30
2022-12-05T10:12:30.781Z,17.05
2022-12-05T10:15:05.413Z,15.27
2022-12-05T10:17:36.367Z,16.92
2022-12-05T10:20:11.493Z,17.80
2022-12-05T10:22:45.057Z,12.60
2022-12-05T10:27:47.965Z,17.15
2022-12-05T10:30:18.320Z,19.92
2022-12-05T10:32:53.159Z,12.60
2022-12-05T10:35:23.364Z,14.32
2022-12-05T10:37:53.561Z,15.30
2022-12-05T10:40:23.416Z,16.65
2022-12-05T10:42:54.451Z,14.15
2022-12-05T10:45:24.767Z,12.73
2022-12-05T10:47:56.417Z,13.60
2022-12-05T10:50:29.393Z,14.23
2022-12-05T10:52:59.624Z,14.95
2022-12-05T10:55:32.496Z,14.60
2022-12-05T10:58:17.261Z,13.82
2022-12-05T11:00:49.206Z,14.40
2022-12-05T11:03:27.123Z,14.65
2022-12-05T11:05:58.699Z,14.65
2022-12-05T11:08:56.046Z,14.85
2022-12-05T11:11:28.477Z,13.95
2022-12-05T11:13:59.732Z,11.98
2022-12-05T11:16:31.542Z,14.18
2022-12-05T11:19:24.200Z,14.35
2022-12-05T11:21:53.147Z,13.55
2022-12-05T11:24:28.252Z,11.63
2022-12-05T11:26:59.824Z,11.32
2022-12-05T11:29:34.377Z,12.23
2022-12-05T11:32:03.173Z,13.02
2022-12-05T11:34:36.481Z,13.05
2022-12-05T11:39:35.258Z,12.25
2022-12-05T11:42:28.317Z,11.73
2022-12-05T11:45:23.402Z,14.15
2022-12-05T11:48:13.695Z,14.93
2022-12-05T11:50:52.196Z,12.55
2022-12-05T11:53:37.822Z,12.30
2022-12-05T11:56:19.019Z,13.20
2022-12-05T11:59:02.117Z,12.35
2022-12-05T12:01:40.145Z,13.57
2022-12-05T12:04:46.187Z,11.40
2022-12-05T12:07:27.875Z,12.90
2022-12-05T12:10:09.642Z,11.82
2022-12-05T12:12:50.423Z,13.00
2022-12-05T12:15:46.760Z,12.55
2022-12-05T12:18:25.759Z,13.63
2022-12-05T12:21:05.197Z,12.85
2022-12-05T12:23:49.088Z,10.02
2022-12-05T12:26:26.359Z,9.38
2022-12-05T12:29:06.080Z,9.23
2022-12-05T12:31:53.746Z,10.80
2022-12-05T12:34:41.450Z,10.05
2022-12-05T12:37:16.578Z,9.30
2022-12-05T12:39:52.440Z,9.95
2022-12-05T12:42:25.615Z,8.75
2022-12-05T12:45:16.916Z,12.07
2022-12-05T12:48:01.490Z,8.65
2022-12-05T12:50:33.123Z,8.05
2022-12-05T12:53:30.874Z,6.85
2022-12-05T12:56:06.544Z,7.53
2022-12-05T12:58:47.331Z,10.15
2022-12-05T13:01:30.013Z,6.55
2022-12-05T13:04:06.738Z,7.70
2022-12-05T13:06:40.807Z,8.20
2022-12-05T13:09:16.489Z,7.40
2022-12-05T13:11:46.800Z,7.05
2022-12-05T13:14:18.560Z,8.10
2022-12-05T13:16:51.926Z,6.70
2022-12-05T13:21:54.808Z,7.75
2022-12-05T13:24:27.730Z,6.72
2022-12-05T13:27:00.924Z,6.22
2022-12-05T13:29:35.040Z,6.90
2022-12-05T13:32:04.957Z,5.78
2022-12-05T13:34:48.479Z,7.97
2022-12-05T13:37:43.678Z,6.28
2022-12-05T13:40:46.354Z,5.78
2022-12-05T13:43:18.665Z,6.35
2022-12-05T13:46:03.491Z,6.90
2022-12-05T13:48:35.031Z,4.13
2022-12-05T13:51:09.511Z,4.13
2022-12-05T13:53:41.035Z,5.82
2022-12-05T13:56:27.553Z,5.57
2022-12-05T13:58:56.882Z,3.58
2022-12-05T14:01:55.338Z,4.43
2022-12-05T14:04:50.759Z,4.32
2022-12-05T14:07:46.245Z,4.22
2022-12-05T14:10:16.788Z,5.45
2022-12-05T14:12:56.687Z,5.68
2022-12-05T14:15:37.013Z,5.00
2022-12-05T14:18:14.427Z,4.80
2022-12-05T14:21:03.828Z,4.13
2022-12-05T14:23:56.979Z,4.43
2022-12-05T14:26:41.469Z,4.45
2022-12-05T14:29:38.294Z,6.20
2022-12-05T14:32:19.652Z,3.75
2022-12-05T14:34:59.303Z,4.60
2022-12-05T14:37:30.227Z,4.63
2022-12-05T14:40:01.951Z,5.55
2022-12-05T14:42:44.287Z,4.10
2022-12-05T14:45:28.852Z,5.15
2022-12-05T14:48:27.382Z,5.47
2022-12-05T14:50:56.826Z,6.53
2022-12-05T14:53:32.994Z,4.03
2022-12-05T14:56:16.429Z,4.07
2022-12-05T14:58:49.922Z,4.90
2022-12-05T15:01:29.587Z,5.57
2022-12-05T15:04:24.920Z,5.50
2022-12-05T15:07:01.169Z,4.60
2022-12-05T15:09:38.055Z,5.50
2022-12-05T15:12:14.910Z,5.78
2022-12-05T15:14:54.767Z,5.63
2022-12-05T15:17:27.917Z,4.15
2022-12-05T15:20:03.745Z,6.85
2022-12-05T15:22:36.465Z,5.03
2022-12-05T15:25:29.000Z,3.60
2022-12-05T15:28:04.550Z,5.93
2022-12-05T15:30:35.832Z,4.32
2022-12-05T15:33:04.295Z,5.00
2022-12-05T15:35:35.277Z,6.60
2022-12-05T15:38:12.027Z,4.93
2022-12-05T15:40:48.049Z,5.68
2022-12-05T15:43:31.545Z,4.32
2022-12-05T15:48:40.512Z,5.30
2022-12-05T15:51:10.379Z,4.95
2022-12-05T15:53:47.642Z,4.13
2022-12-05T15:56:19.284Z,5.70
2022-12-05T15:58:56.984Z,4.32
2022-12-05T16:01:26.916Z,5.00
2022-12-05T16:04:01.700Z,5.05
2022-12-05T16:06:33.685Z,3.67
2022-12-05T16:09:11.345Z,6.13
2022-12-05T16:11:40.714Z,4.55
2022-12-05T16:14:21.550Z,2.95
2022-12-05T16:19:33.680Z,4.05
2022-12-05T16:22:04.075Z,3.97
2022-12-05T16:24:39.772Z,4.72
2022-12-05T16:27:15.774Z,5.13
2022-12-05T16:29:45.899Z,4.22
2022-12-05T16:32:23.018Z,3.63
2022-12-05T16:34:51.609Z,5.72
2022-12-05T16:37:27.801Z,3.30
2022-12-05T16:39:58.750Z,3.72
2022-12-05T16:42:28.089Z,3.38
2022-12-05T16:45:03.314Z,3.25
2022-12-05T16:47:54.636Z,4.13
2022-12-05T16:50:27.127Z,3.35
2022-12-05T16:53:03.108Z,7.60
2022-12-05T16:55:37.260Z,2.10
2022-12-05T16:58:08.560Z,5.07
2022-12-05T17:00:41.620Z,3.08
2022-12-05T17:03:33.351Z,3.30
2022-12-05T17:06:02.334Z,3.30
2022-12-05T17:08:32.495Z,4.03
2022-12-05T17:11:03.746Z,14.52
2022-12-05T17:13:33.061Z,2.88
2022-12-05T17:16:02.632Z,4.68
2022-12-05T17:18:32.088Z,7.05
2022-12-05T17:21:03.026Z,11.15
2022-12-05T17:23:32.642Z,3.22
2022-12-05T17:26:01.116Z,3.38
2022-12-05T17:28:31.475Z,3.45
2022-12-05T17:31:00.282Z,3.97
2022-12-05T17:33:29.731Z,2.85
2022-12-05T17:35:59.248Z,2.75
2022-12-05T17:38:27.404Z,3.40
2022-12-05T17:40:56.218Z,5.38
2022-12-05T17:43:25.508Z,5.00
2022-12-05T17:45:54.856Z,3.28
2022-12-05T17:48:32.307Z,3.85
2022-12-05T17:51:07.638Z,3.50
2022-12-05T17:53:37.839Z,2.65
2022-12-05T17:56:06.774Z,3.08
2022-12-05T17:58:35.110Z,4.25
2022-12-05T18:01:05.000Z,14.25
2022-12-05T18:03:35.387Z,5.63
2022-12-05T18:06:09.413Z,6.13
2022-12-05T18:08:39.746Z,5.75
2022-12-05T18:11:08.612Z,4.57
2022-12-05T18:13:38.827Z,4.18
2022-12-05T18:16:08.471Z,4.75
2022-12-05T18:18:37.747Z,3.53
2022-12-05T18:21:10.275Z,3.60
2022-12-05T18:23:43.697Z,3.10
2022-12-05T18:26:12.357Z,4.47
2022-12-05T18:28:41.344Z,3.53
2022-12-05T18:31:14.983Z,3.53
2022-12-05T18:33:44.100Z,4.45
2022-12-05T18:36:15.766Z,8.88
2022-12-05T18:38:44.730Z,5.70
2022-12-05T18:41:12.814Z,6.72
2022-12-05T18:43:41.259Z,5.70
2022-12-05T18:46:09.410Z,4.60
2022-12-05T18:48:42.525Z,5.53
2022-12-05T18:51:17.030Z,4.13
2022-12-05T18:53:54.134Z,4.63
2022-12-05T18:56:25.158Z,5.85
2022-12-05T18:58:55.913Z,7.25
2022-12-05T19:01:25.159Z,5.25
2022-12-05T19:03:53.455Z,4.78
2022-12-05T19:06:25.659Z,4.93
2022-12-05T19:08:56.299Z,4.20
2022-12-05T19:11:27.197Z,3.28
2022-12-05T19:13:56.487Z,3.72
2022-12-05T19:16:26.564Z,3.67
2022-12-05T19:18:57.399Z,3.17
2022-12-05T19:21:31.141Z,3.67
2022-12-05T19:24:00.461Z,3.85
2022-12-05T19:26:37.648Z,5.47
2022-12-05T19:29:06.234Z,4.50
2022-12-05T19:31:35.789Z,6.25
2022-12-05T19:34:09.612Z,6.72
2022-12-05T19:36:40.871Z,4.72
2022-12-05T19:39:11.588Z,4.30
2022-12-05T19:41:39.705Z,5.72
2022-12-05T19:44:07.852Z,4.45
2022-12-05T19:46:39.615Z,4.90
2022-12-05T19:49:09.833Z,3.20
2022-12-05T19:51:42.173Z,3.45
2022-12-05T19:54:12.575Z,5.23
2022-12-05T19:56:42.752Z,4.07
2022-12-05T19:59:15.483Z,4.22
2022-12-05T20:01:45.251Z,2.95
2022-12-05T20:04:19.255Z,3.47
2022-12-05T20:06:51.359Z,5.95
2022-12-05T20:09:21.439Z,5.95
2022-12-05T20:11:56.033Z,5.00
2022-12-05T20:14:30.068Z,4.13
2022-12-05T20:16:58.330Z,4.13
2022-12-05T20:19:33.468Z,5.95
2022-12-05T20:22:02.995Z,4.25
2022-12-05T20:24:31.273Z,4.88
2022-12-05T20:27:01.063Z,5.10
2022-12-05T20:29:29.463Z,4.82
2022-12-05T20:31:58.439Z,3.22
2022-12-05T20:34:26.566Z,4.00
2022-12-05T20:36:55.023Z,3.50
2022-12-05T20:39:30.647Z,4.05
2022-12-05T20:41:58.930Z,3.30
2022-12-05T20:44:27.488Z,3.10
2022-12-05T20:46:55.704Z,3.40
2022-12-05T20:49:24.037Z,3.20
2022-12-05T20:51:54.435Z,3.35
2022-12-05T20:54:25.558Z,4.97
2022-12-05T20:56:56.596Z,4.10
2022-12-05T20:59:26.959Z,3.05
2022-12-05T21:01:55.389Z,4.97
2022-12-05T21:04:23.420Z,4.22
2022-12-05T21:06:51.414Z,4.05
2022-12-05T21:09:26.746Z,4.05
2022-12-05T21:11:56.697Z,6.68
2022-12-05T21:14:26.156Z,5.70
2022-12-05T21:16:56.956Z,4.97
2022-12-05T21:19:25.252Z,6.05
2022-12-05T21:21:54.875Z,6.18
2022-12-05T21:24:24.561Z,5.93
2022-12-05T21:26:52.958Z,5.55
2022-12-05T21:29:22.768Z,5.25
2022-12-05T21:31:52.146Z,4.45
2022-12-05T21:34:23.172Z,4.55
2022-12-05T21:36:51.585Z,5.07
2022-12-05T21:39:19.663Z,5.13
2022-12-05T21:41:50.561Z,6.32
2022-12-05T21:44:24.760Z,3.30
2022-12-05T21:46:54.433Z,4.22
2022-12-05T21:49:23.099Z,4.93
2022-12-05T21:51:51.647Z,5.10
2022-12-05T21:54:22.447Z,3.00
2022-12-05T21:56:58.750Z,3.42
2022-12-05T21:59:29.201Z,3.78
2022-12-05T22:01:58.614Z,3.70
2022-12-05T22:04:26.656Z,3.97
2022-12-05T22:06:54.648Z,3.42
2022-12-05T22:09:30.815Z,3.60
2022-12-05T22:12:00.427Z,4.82
2022-12-05T22:14:29.703Z,2.60
2022-12-05T22:17:01.069Z,2.92
2022-12-05T22:19:29.252Z,3.38
2022-12-05T22:21:57.301Z,3.05
2022-12-05T22:24:25.396Z,4.95
2022-12-05T22:26:55.286Z,2.65
2022-12-05T22:29:23.341Z,3.58
2022-12-05T22:31:51.510Z,5.53
2022-12-05T22:34:22.369Z,4.30
2022-12-05T22:36:52.263Z,3.35
2022-12-05T22:39:20.288Z,4.88
2022-12-05T22:41:48.336Z,3.13
2022-12-05T22:44:16.561Z,3.47
2022-12-05T22:46:44.594Z,2.63
2022-12-05T22:49:13.989Z,3.05
2022-12-05T22:51:43.543Z,4.53
2022-12-05T22:54:11.631Z,4.80
2022-12-05T22:56:39.740Z,5.25
2022-12-05T22:59:11.586Z,4.25
2022-12-05T23:01:43.829Z,4.30
2022-12-05T23:04:13.799Z,3.58
2022-12-05T23:06:44.670Z,4.22
2022-12-05T23:09:14.117Z,4.40
2022-12-05T23:11:42.614Z,4.18
2022-12-05T23:14:10.807Z,3.58
2022-12-05T23:16:41.414Z,4.75
2022-12-05T23:19:09.965Z,5.47
2022-12-05T23:21:40.410Z,5.50
2022-12-05T23:24:12.900Z,5.10
2022-12-05T23:26:43.093Z,5.32
2022-12-05T23:29:14.076Z,6.78
2022-12-05T23:31:43.014Z,8.20
2022-12-05T23:34:12.034Z,8.10
2022-12-05T23:36:40.740Z,6.57
2022-12-05T23:39:10.598Z,5.90
2022-12-05T23:41:39.064Z,4.45
2022-12-05T23:44:08.094Z,6.28
2022-12-05T23:46:36.420Z,4.65
2022-12-05T23:49:06.448Z,5.28
2022-12-05T23:51:40.996Z,5.80
2022-12-05T23:54:13.650Z,5.40
2022-12-05T23:56:42.088Z,4.80
2022-12-05T23:59:11.777Z,5.43
